Time;durP1;ratioP1;P1;durP2;ratioP2;P2;SDS_P1;SDS_P2;PMS_P1;PMS_P2;Temp;Humidity;BMP_temperature;BMP_pressure;BME280_temperature;BME280_humidity;BME280_pressure;Samples;Min_cycle;Max_cycle;Signal;HPM_P1;HPM_P2
2021/04/20 00:02:21;;;;;;;12.20;10.93;;;14.10;42.60;;;;;;5053004;28;20041;-60
2021/04/20 00:04:47;;;;;;;10.50;9.40;;;14.20;42.70;;;;;;5053964;28;20468;-61
2021/04/20 00:07:13;;;;;;;10.25;9.23;;;14.20;42.30;;;;;;5049108;28;20115;-60
2021/04/20 00:09:38;;;;;;;11.88;9.63;;;14.10;42.50;;;;;;5051010;28;20359;-60
2021/04/20 00:12:04;;;;;;;11.60;10.13;;;14.10;42.80;;;;;;5051150;28;20044;-58
2021/04/20 00:14:30;;;;;;;10.60;9.55;;;14.10;42.90;;;;;;5046549;28;20048;-61
2021/04/20 00:16:55;;;;;;;11.23;9.98;;;14.00;42.70;;;;;;5052105;28;20903;-61
2021/04/20 00:19:21;;;;;;;11.77;10.43;;;14.10;42.70;;;;;;5060319;28;20048;-61
2021/04/20 00:21:47;;;;;;;10.52;9.43;;;14.10;42.60;;;;;;5023670;28;20072;-60
2021/04/20 00:24:12;;;;;;;11.90;10.35;;;14.00;42.20;;;;;;5036312;28;20083;-60
2021/04/20 00:26:38;;;;;;;10.25;9.23;;;14.10;42.10;;;;;;5049724;28;20093;-60
2021/04/20 00:29:04;;;;;;;10.20;9.00;;;14.00;42.40;;;;;;5061881;28;20119;-60
2021/04/20 00:31:29;;;;;;;9.65;8.65;;;14.00;42.30;;;;;;5035813;28;21447;-61
2021/04/20 00:33:55;;;;;;;9.77;8.77;;;13.90;42.60;;;;;;5043346;28;20044;-61
2021/04/20 00:36:20;;;;;;;10.15;9.10;;;13.90;42.30;;;;;;5047144;28;20111;-60
2021/04/20 00:38:46;;;;;;;10.68;9.18;;;13.90;43.10;;;;;;5045087;28;20407;-60
2021/04/20 00:41:14;;;;;;;12.45;10.30;;;14.00;42.60;;;;;;5062744;28;20044;-60
2021/04/20 00:43:42;;;;;;;13.00;9.73;;;14.00;42.50;;;;;;5062621;28;20033;-60
2021/04/20 00:46:09;;;;;;;11.32;10.00;;;13.90;42.90;;;;;;5063976;28;20479;-60
2021/04/20 00:48:35;;;;;;;10.80;8.52;;;13.90;42.80;;;;;;5055961;28;20072;-61
2021/04/20 00:51:00;;;;;;;11.15;8.23;;;13.90;42.90;;;;;;5047628;28;20067;-60
2021/04/20 00:53:26;;;;;;;10.18;9.05;;;13.90;43.10;;;;;;5046740;28;20546;-60
2021/04/20 00:55:52;;;;;;;12.07;9.07;;;13.90;42.70;;;;;;5044650;28;20037;-60
2021/04/20 00:58:18;;;;;;;9.75;8.73;;;13.90;42.60;;;;;;5059809;28;20107;-60
2021/04/20 01:00:43;;;;;;;11.75;8.88;;;13.80;42.50;;;;;;5066474;28;20061;-61
2021/04/20 01:03:09;;;;;;;11.38;9.40;;;13.80;42.40;;;;;;5067870;28;20437;-61
2021/04/20 01:05:37;;;;;;;10.38;8.82;;;13.80;42.30;;;;;;5061644;28;20565;-58
2021/04/20 01:08:06;;;;;;;12.63;8.70;;;13.80;42.70;;;;;;5067733;28;20121;-60
2021/04/20 01:10:40;;;;;;;17.08;9.95;;;13.80;42.30;;;;;;5054372;28;20120;-60
2021/04/20 01:13:08;;;;;;;18.05;10.52;;;13.80;42.50;;;;;;5047582;28;20052;-60
2021/04/20 01:15:34;;;;;;;17.30;9.93;;;13.80;42.50;;;;;;5044152;28;20442;-60
2021/04/20 01:18:17;;;;;;;14.05;10.15;;;13.70;42.70;;;;;;5049560;28;20045;-61
2021/04/20 01:20:44;;;;;;;17.67;9.48;;;13.80;43.20;;;;;;4998985;28;20051;-61
2021/04/20 01:23:13;;;;;;;15.02;9.27;;;13.80;42.70;;;;;;5047789;28;20028;-60
2021/04/20 01:25:40;;;;;;;14.00;9.85;;;13.80;43.00;;;;;;5053802;28;20039;-60
2021/04/20 01:28:06;;;;;;;11.52;9.60;;;13.70;42.80;;;;;;5052581;28;20064;-55
2021/04/20 01:30:34;;;;;;;13.00;8.73;;;13.70;42.70;;;;;;5047192;28;20137;-61
2021/04/20 01:33:03;;;;;;;15.23;10.02;;;13.70;43.10;;;;;;5060707;28;20462;-60
2021/04/20 01:35:29;;;;;;;11.15;9.18;;;13.70;42.90;;;;;;5055314;28;20033;-61
2021/04/20 01:37:55;;;;;;;12.77;9.68;;;13.70;43.00;;;;;;5059437;28;20555;-60
2021/04/20 01:40:20;;;;;;;10.55;9.32;;;13.70;43.10;;;;;;5044879;28;20055;-61
2021/04/20 01:42:46;;;;;;;10.48;9.38;;;13.60;43.30;;;;;;5051079;28;20044;-61
2021/04/20 01:45:12;;;;;;;13.90;10.30;;;13.60;42.90;;;;;;5049173;28;20090;-61
2021/04/20 01:47:38;;;;;;;12.57;10.32;;;13.60;42.80;;;;;;5067030;28;20091;-60
2021/04/20 01:50:05;;;;;;;10.55;9.13;;;13.60;43.00;;;;;;5058741;28;20409;-61
2021/04/20 01:52:31;;;;;;;10.63;9.50;;;13.50;43.10;;;;;;5034309;28;20041;-61
2021/04/20 01:54:57;;;;;;;10.82;9.68;;;13.50;42.90;;;;;;5065437;28;20069;-60
2021/04/20 01:57:23;;;;;;;12.50;10.15;;;13.50;42.80;;;;;;5027429;28;20529;-61
2021/04/20 01:59:50;;;;;;;10.13;9.13;;;13.50;43.00;;;;;;5048804;28;20029;-60
2021/04/20 02:02:16;;;;;;;10.43;9.32;;;13.50;43.10;;;;;;5048414;28;20603;-60
2021/04/20 02:04:42;;;;;;;12.40;10.40;;;13.50;43.10;;;;;;5052999;28;20090;-61
2021/04/20 02:07:07;;;;;;;10.48;8.68;;;13.50;43.00;;;;;;5050458;28;20053;-60
2021/04/20 02:09:34;;;;;;;11.25;9.38;;;13.50;43.10;;;;;;5050881;28;20490;-61
2021/04/20 02:12:00;;;;;;;10.60;9.50;;;13.40;43.20;;;;;;5046393;28;20037;-61
2021/04/20 02:14:26;;;;;;;12.77;11.07;;;13.40;43.10;;;;;;5036949;28;20041;-61
2021/04/20 02:16:53;;;;;;;13.15;10.63;;;13.50;43.40;;;;;;5045790;28;20492;-60
2021/04/20 02:19:20;;;;;;;14.18;11.82;;;13.40;43.70;;;;;;5052633;28;20437;-60
2021/04/20 02:21:47;;;;;;;20.17;15.55;;;13.40;43.40;;;;;;5044184;28;20041;-61
2021/04/20 02:24:14;;;;;;;22.50;17.67;;;13.40;44.00;;;;;;5053415;28;20049;-61
2021/04/20 02:26:40;;;;;;;28.50;18.92;;;13.30;44.40;;;;;;5050349;28;20410;-60
2021/04/20 02:29:08;;;;;;;23.58;18.95;;;13.30;45.00;;;;;;5060401;28;20079;-61
2021/04/20 02:31:36;;;;;;;24.90;20.88;;;13.30;45.40;;;;;;5049844;28;20033;-60
2021/04/20 02:34:09;;;;;;;25.48;20.95;;;13.20;45.60;;;;;;5058052;28;20501;-61
2021/04/20 02:36:37;;;;;;;27.23;21.90;;;13.20;46.30;;;;;;5042726;28;20095;-60
2021/04/20 02:39:04;;;;;;;27.38;22.65;;;13.20;46.40;;;;;;5049990;28;20120;-61
2021/04/20 02:41:30;;;;;;;25.65;21.40;;;13.20;46.30;;;;;;5049117;28;20044;-61
2021/04/20 02:43:56;;;;;;;31.23;24.50;;;13.20;46.40;;;;;;5028338;28;20074;-61
2021/04/20 02:49:44;;;;;;;28.33;22.23;;;13.20;47.40;;;;;;5006607;28;20047;-60
2021/04/20 02:52:10;;;;;;;27.80;22.40;;;13.10;47.10;;;;;;5067838;28;20399;-60
2021/04/20 02:54:35;;;;;;;28.42;22.40;;;13.10;47.30;;;;;;5053374;28;20110;-61
2021/04/20 02:57:02;;;;;;;28.27;22.98;;;13.10;47.20;;;;;;5038455;28;20090;-60
2021/04/20 02:59:30;;;;;;;26.30;22.33;;;13.10;47.40;;;;;;5039164;28;20397;-60
2021/04/20 03:01:59;;;;;;;27.65;21.58;;;13.10;47.50;;;;;;5064116;28;20036;-61
2021/04/20 03:04:24;;;;;;;24.83;20.38;;;13.10;47.80;;;;;;5060118;28;20209;-61
2021/04/20 03:06:50;;;;;;;28.45;21.00;;;13.10;47.90;;;;;;5059089;28;20455;-60
2021/04/20 03:09:16;;;;;;;27.80;21.00;;;13.10;47.90;;;;;;5044418;28;20035;-61
2021/04/20 03:11:54;;;;;;;27.48;21.30;;;13.10;48.10;;;;;;5053185;28;20045;-61
2021/04/20 03:14:20;;;;;;;27.10;21.20;;;13.00;48.60;;;;;;5049264;28;20036;-61
2021/04/20 03:16:46;;;;;;;25.65;21.92;;;13.00;48.10;;;;;;5056495;28;20057;-60
2021/04/20 03:19:12;;;;;;;28.95;22.23;;;13.00;48.30;;;;;;5040300;28;20051;-60
2021/04/20 03:21:38;;;;;;;26.88;20.83;;;13.10;48.00;;;;;;5052219;28;20040;-60
2021/04/20 03:24:04;;;;;;;25.83;21.00;;;13.00;48.20;;;;;;5062695;28;20052;-61
2021/04/20 03:26:33;;;;;;;31.58;22.10;;;13.00;48.60;;;;;;5057585;28;20037;-60
2021/04/20 03:29:00;;;;;;;29.05;22.23;;;13.00;48.30;;;;;;5055486;28;20063;-61
2021/04/20 03:31:27;;;;;;;28.48;23.15;;;12.90;48.50;;;;;;5054802;28;20152;-60
2021/04/20 03:34:16;;;;;;;28.05;23.17;;;12.90;48.80;;;;;;5040743;28;20123;-61
2021/04/20 03:36:52;;;;;;;26.50;21.88;;;12.90;49.10;;;;;;5047157;28;20182;-61
2021/04/20 03:39:22;;;;;;;29.67;23.98;;;12.90;49.20;;;;;;5060698;28;20509;-60
2021/04/20 03:42:04;;;;;;;32.42;24.65;;;12.80;49.20;;;;;;5054300;28;20045;-61
2021/04/20 03:44:35;;;;;;;30.63;22.77;;;12.90;49.10;;;;;;5048173;28;20102;-61
2021/04/20 03:47:06;;;;;;;27.30;23.45;;;12.80;49.20;;;;;;5056552;28;20056;-61
2021/04/20 03:49:41;;;;;;;30.83;25.60;;;12.90;49.30;;;;;;5060300;28;20103;-61
2021/04/20 03:52:16;;;;;;;29.77;23.85;;;12.80;49.50;;;;;;5059770;28;20040;-56
2021/04/20 03:54:42;;;;;;;;;;;12.80;49.60;;;;;;5065424;28;20039;-60
2021/04/20 03:57:09;;;;;;;26.15;22.92;;;12.80;50.00;;;;;;5048512;28;19970;-60
2021/04/20 03:59:37;;;;;;;30.60;24.42;;;12.70;49.50;;;;;;5050191;28;20124;-60
2021/04/20 04:02:04;;;;;;;28.35;24.35;;;12.70;49.50;;;;;;5058975;28;20028;-61
2021/04/20 04:04:30;;;;;;;29.75;24.90;;;12.70;49.60;;;;;;5043867;28;20483;-61
2021/04/20 04:06:58;;;;;;;32.03;25.90;;;12.70;49.40;;;;;;5040690;28;20052;-61
2021/04/20 04:09:24;;;;;;;31.40;24.48;;;12.70;50.00;;;;;;5046263;28;20068;-60
2021/04/20 04:12:00;;;;;;;27.65;23.75;;;12.70;49.80;;;;;;5047653;28;20029;-60
2021/04/20 04:14:32;;;;;;;32.25;25.23;;;12.70;50.90;;;;;;5052099;28;20093;-60
2021/04/20 04:17:01;;;;;;;29.33;24.63;;;12.70;50.20;;;;;;5041444;28;20141;-61
2021/04/20 04:19:38;;;;;;;31.00;25.40;;;12.70;50.00;;;;;;5044559;28;22992;-60
2021/04/20 04:22:08;;;;;;;29.48;23.65;;;12.70;50.10;;;;;;5024633;28;20065;-60
2021/04/20 04:24:55;;;;;;;32.15;24.38;;;12.60;50.00;;;;;;5055336;28;20397;-61
2021/04/20 04:27:46;;;;;;;30.98;23.00;;;12.70;50.40;;;;;;5027397;28;20548;-60
2021/04/20 04:30:14;;;;;;;32.80;24.05;;;12.60;50.60;;;;;;5029284;28;20090;-60
2021/04/20 04:32:42;;;;;;;28.48;23.23;;;12.50;49.90;;;;;;5062902;28;20339;-60
2021/04/20 04:35:10;;;;;;;27.70;22.45;;;12.60;50.00;;;;;;5057873;28;20086;-60
2021/04/20 04:37:37;;;;;;;28.67;23.40;;;12.60;49.70;;;;;;5045510;28;20049;-60
2021/04/20 04:40:05;;;;;;;28.77;22.30;;;12.60;49.20;;;;;;5058645;28;20041;-60
2021/04/20 04:42:31;;;;;;;27.40;23.38;;;12.60;49.60;;;;;;5054338;28;20124;-60
2021/04/20 04:44:57;;;;;;;25.70;21.27;;;12.60;49.30;;;;;;5048114;28;20049;-61
2021/04/20 04:47:23;;;;;;;23.38;20.05;;;12.50;49.00;;;;;;5059185;28;20041;-60
2021/04/20 04:49:50;;;;;;;26.52;20.25;;;12.50;49.20;;;;;;5067731;28;20585;-61
2021/04/20 04:52:18;;;;;;;26.92;21.58;;;12.50;49.30;;;;;;5065152;28;20215;-60
2021/04/20 04:54:44;;;;;;;27.88;22.38;;;12.50;49.30;;;;;;5058703;28;20054;-60
2021/04/20 04:57:12;;;;;;;26.35;20.98;;;12.50;48.80;;;;;;5043334;28;20062;-60
2021/04/20 04:59:39;;;;;;;26.92;20.92;;;12.50;48.50;;;;;;5054913;28;20062;-60
2021/04/20 05:02:06;;;;;;;26.52;20.13;;;12.50;48.60;;;;;;5067953;28;20041;-61
2021/04/20 05:04:32;;;;;;;26.60;21.23;;;12.50;48.60;;;;;;5064787;28;20043;-61
2021/04/20 05:06:58;;;;;;;27.52;21.20;;;12.50;48.80;;;;;;5066209;28;20378;-61
2021/04/20 05:09:24;;;;;;;26.80;22.98;;;12.40;48.80;;;;;;5064679;28;20071;-61
2021/04/20 05:11:52;;;;;;;27.35;21.30;;;12.50;48.80;;;;;;5049920;28;20548;-61
2021/04/20 05:14:19;;;;;;;27.85;21.85;;;12.60;48.60;;;;;;5062321;28;20058;-61
2021/04/20 05:16:48;;;;;;;27.27;21.35;;;12.50;48.80;;;;;;5051086;28;20045;-60
2021/04/20 05:19:24;;;;;;;29.17;22.88;;;12.50;48.80;;;;;;5043627;28;20045;-61
2021/04/20 05:21:49;;;;;;;26.33;20.35;;;12.60;48.40;;;;;;5031237;28;20025;-61
2021/04/20 05:24:19;;;;;;;27.95;21.77;;;12.50;48.20;;;;;;5048864;28;20485;-61
2021/04/20 05:26:44;;;;;;;28.70;22.58;;;12.50;48.40;;;;;;5051384;28;20608;-61
2021/04/20 05:29:10;;;;;;;29.00;22.88;;;12.50;48.50;;;;;;5064448;28;20123;-61
2021/04/20 05:31:36;;;;;;;26.08;21.25;;;12.50;48.50;;;;;;5069395;28;20458;-61
2021/04/20 05:34:05;;;;;;;28.70;22.30;;;12.50;48.40;;;;;;5045525;28;20083;-61
2021/04/20 05:36:33;;;;;;;29.48;22.65;;;12.50;48.50;;;;;;5067089;28;20056;-61
2021/04/20 05:39:04;;;;;;;28.67;21.67;;;12.60;48.20;;;;;;5055769;28;20052;-61
2021/04/20 05:41:33;;;;;;;28.20;23.20;;;12.60;48.40;;;;;;5062866;28;20101;-61
2021/04/20 05:44:00;;;;;;;30.65;23.10;;;12.60;48.60;;;;;;5067090;28;20043;-62
2021/04/20 05:46:26;;;;;;;29.42;21.60;;;12.60;48.30;;;;;;5055940;28;20032;-61
2021/04/20 05:48:53;;;;;;;36.10;23.50;;;12.70;48.20;;;;;;5065832;28;20044;-61
2021/04/20 05:51:22;;;;;;;29.67;23.08;;;12.60;48.00;;;;;;5039324;28;20501;-60
2021/04/20 05:53:49;;;;;;;30.48;22.45;;;12.60;47.90;;;;;;5067116;28;20041;-61
2021/04/20 05:56:16;;;;;;;31.00;22.02;;;12.60;48.00;;;;;;5053474;28;20051;-61
2021/04/20 05:58:42;;;;;;;28.60;22.33;;;12.70;48.10;;;;;;5060193;28;20033;-61
2021/04/20 06:01:08;;;;;;;30.80;23.13;;;12.70;47.80;;;;;;5027639;28;20474;-59
2021/04/20 06:03:35;;;;;;;36.47;24.70;;;12.70;48.10;;;;;;5050488;28;20132;-61
2021/04/20 06:06:06;;;;;;;30.23;23.92;;;12.80;48.00;;;;;;5062057;28;20048;-61
2021/04/20 06:08:36;;;;;;;30.75;23.48;;;12.80;47.80;;;;;;5051767;28;20036;-61
2021/04/20 06:11:04;;;;;;;29.77;22.85;;;12.90;48.10;;;;;;5037649;28;20029;-61
2021/04/20 06:13:31;;;;;;;32.38;24.88;;;13.00;48.20;;;;;;5060253;28;20482;-61
2021/04/20 06:15:56;;;;;;;27.98;22.33;;;13.00;47.90;;;;;;5063772;28;20468;-61
2021/04/20 06:18:24;;;;;;;27.98;23.30;;;13.00;47.70;;;;;;5058443;28;20045;-61
2021/04/20 06:20:53;;;;;;;31.25;22.30;;;12.90;47.70;;;;;;5058698;28;20040;-61
2021/04/20 06:23:19;;;;;;;30.65;23.83;;;13.00;48.00;;;;;;5065003;28;20042;-59
2021/04/20 06:25:45;;;;;;;30.80;24.58;;;13.10;47.60;;;;;;5048807;28;20494;-61
2021/04/20 06:28:14;;;;;;;33.80;24.92;;;13.10;47.10;;;;;;5062888;28;20060;-59
2021/04/20 06:30:41;;;;;;;33.70;23.75;;;13.20;47.10;;;;;;5064629;28;20461;-59
2021/04/20 06:33:08;;;;;;;31.17;23.50;;;13.20;47.20;;;;;;5061317;28;20068;-59
2021/04/20 06:35:34;;;;;;;33.08;24.38;;;13.30;47.50;;;;;;5042163;28;20401;-60
2021/04/20 06:38:01;;;;;;;33.50;25.10;;;13.40;47.20;;;;;;5059734;28;20557;-60
2021/04/20 06:40:34;;;;;;;31.50;23.63;;;13.40;47.10;;;;;;5051441;28;20055;-61
2021/04/20 06:43:04;;;;;;;31.63;24.52;;;13.40;46.60;;;;;;5038099;28;20048;-61
2021/04/20 06:45:41;;;;;;;27.73;22.58;;;13.50;46.60;;;;;;5049020;28;20455;-61
2021/04/20 06:48:24;;;;;;;27.50;23.25;;;13.50;46.20;;;;;;5047136;28;20071;-60
2021/04/20 06:50:55;;;;;;;32.10;24.02;;;13.50;46.20;;;;;;5024656;28;20045;-60
2021/04/20 06:53:26;;;;;;;29.10;23.55;;;13.50;46.30;;;;;;5035701;28;20048;-60
2021/04/20 06:56:06;;;;;;;30.83;23.98;;;13.50;46.30;;;;;;5035522;28;20091;-60
2021/04/20 06:58:52;;;;;;;28.63;23.73;;;13.50;45.80;;;;;;5042006;28;20045;-61
2021/04/20 07:01:25;;;;;;;29.70;23.67;;;13.50;46.20;;;;;;5005979;28;20128;-60
2021/04/20 07:04:09;;;;;;;29.17;23.40;;;13.50;45.80;;;;;;5054504;28;20536;-61
2021/04/20 07:06:43;;;;;;;25.63;20.30;;;13.60;46.00;;;;;;5044874;28;20479;-60
2021/04/20 07:09:30;;;;;;;25.67;21.08;;;13.70;45.20;;;;;;5045384;28;20111;-59
2021/04/20 07:11:56;;;;;;;33.25;21.27;;;13.70;46.00;;;;;;5045255;28;20131;-61
2021/04/20 07:14:36;;;;;;;27.15;21.33;;;13.70;45.00;;;;;;5050462;28;20037;-60
2021/04/20 07:17:10;;;;;;;28.35;21.77;;;13.80;46.20;;;;;;5058201;28;20608;-60
2021/04/20 07:19:57;;;;;;;29.05;22.35;;;13.80;45.10;;;;;;5045284;28;20039;-59
2021/04/20 07:22:50;;;;;;;23.95;20.30;;;13.80;44.60;;;;;;5022201;28;20040;-59
2021/04/20 07:25:34;;;;;;;29.23;21.70;;;13.80;44.30;;;;;;5019742;28;20025;-59
2021/04/20 07:27:59;;;;;;;26.30;20.80;;;13.90;44.60;;;;;;5057903;28;20041;-59
2021/04/20 07:30:45;;;;;;;28.15;21.65;;;14.00;45.10;;;;;;5053718;28;20041;-60
2021/04/20 07:33:37;;;;;;;30.85;21.95;;;14.00;45.10;;;;;;5055819;28;20553;-59
2021/04/20 07:36:17;;;;;;;34.95;22.75;;;14.10;44.80;;;;;;5037572;28;20095;-60
2021/04/20 07:38:49;;;;;;;29.08;23.02;;;14.20;43.90;;;;;;5046443;28;20040;-59
2021/04/20 07:41:58;;;;;;;29.42;22.23;;;14.20;44.10;;;;;;5055029;28;20039;-59
2021/04/20 07:44:35;;;;;;;32.33;23.35;;;14.20;43.10;;;;;;4995836;28;20055;-60
2021/04/20 07:47:12;;;;;;;29.75;22.83;;;14.20;43.90;;;;;;5051862;28;20052;-60
2021/04/20 07:50:05;;;;;;;28.60;22.67;;;14.30;43.20;;;;;;5042705;28;20037;-60
2021/04/20 07:53:04;;;;;;;27.83;20.83;;;14.30;44.40;;;;;;5018433;28;20047;-61
2021/04/20 07:55:37;;;;;;;28.75;21.98;;;14.40;43.10;;;;;;5000725;28;20091;-59
2021/04/20 07:58:07;;;;;;;27.58;22.45;;;14.40;42.60;;;;;;5028883;28;20088;-61
2021/04/20 08:00:42;;;;;;;27.35;22.42;;;14.40;42.70;;;;;;5042908;28;20040;-60
2021/04/20 08:03:19;;;;;;;28.75;21.90;;;14.40;43.20;;;;;;5063452;28;20123;-60
2021/04/20 08:05:47;;;;;;;26.65;20.65;;;14.50;42.10;;;;;;4992025;28;20487;-60
2021/04/20 08:08:18;;;;;;;27.55;21.15;;;14.60;42.10;;;;;;5049708;28;20435;-59
2021/04/20 08:10:46;;;;;;;21.02;18.63;;;14.60;41.90;;;;;;5032624;28;20044;-59
2021/04/20 08:13:16;;;;;;;24.25;19.05;;;14.60;41.60;;;;;;5064766;28;20490;-59
2021/04/20 08:15:49;;;;;;;22.33;18.90;;;14.60;42.10;;;;;;5043966;28;20086;-59
2021/04/20 08:18:21;;;;;;;20.10;16.90;;;14.70;41.80;;;;;;5060359;28;20123;-59
2021/04/20 08:20:47;;;;;;;24.80;17.40;;;14.70;40.80;;;;;;5047827;28;20041;-59
2021/04/20 08:23:14;;;;;;;27.17;19.83;;;14.80;41.30;;;;;;5039300;28;20064;-59
2021/04/20 08:25:50;;;;;;;25.15;18.35;;;14.90;41.20;;;;;;5040681;28;20100;-60
2021/04/20 08:28:40;;;;;;;21.95;17.38;;;14.90;40.40;;;;;;5057638;28;20059;-60
2021/04/20 08:31:23;;;;;;;25.90;18.50;;;14.90;40.60;;;;;;5046071;28;20049;-59
2021/04/20 08:33:59;;;;;;;25.15;18.95;;;15.00;40.40;;;;;;5007478;28;20489;-61
2021/04/20 08:36:30;;;;;;;23.50;17.88;;;15.10;40.30;;;;;;5040370;28;20045;-59
2021/04/20 08:39:25;;;;;;;21.80;18.00;;;15.00;40.00;;;;;;5028167;28;20094;-60
2021/04/20 08:42:03;;;;;;;24.17;19.13;;;15.10;39.80;;;;;;5025501;28;20052;-60
2021/04/20 08:44:36;;;;;;;25.60;18.92;;;15.20;40.20;;;;;;5043082;28;20044;-59
2021/04/20 08:47:25;;;;;;;26.77;19.40;;;15.30;40.60;;;;;;5040025;28;20033;-60
2021/04/20 08:50:00;;;;;;;30.20;20.30;;;15.30;39.80;;;;;;5007212;28;20037;-60
2021/04/20 08:52:40;;;;;;;25.52;18.98;;;15.30;38.60;;;;;;5034157;28;20061;-60
2021/04/20 08:55:25;;;;;;;25.58;19.10;;;15.40;39.40;;;;;;5042428;28;20112;-60
2021/04/20 08:58:00;;;;;;;25.25;18.02;;;15.50;39.20;;;;;;4991772;28;20056;-60
2021/04/20 09:00:34;;;;;;;23.77;17.50;;;15.60;38.60;;;;;;5060467;28;20025;-60
2021/04/20 09:03:17;;;;;;;22.25;17.08;;;15.60;38.70;;;;;;5050960;28;20788;-59
2021/04/20 09:05:49;;;;;;;20.77;15.85;;;15.60;37.80;;;;;;5053735;28;20592;-60
2021/04/20 09:08:30;;;;;;;25.00;17.42;;;15.80;38.90;;;;;;5056669;28;20106;-61
2021/04/20 09:11:10;;;;;;;21.08;16.63;;;15.90;38.00;;;;;;5062844;28;20052;-60
2021/04/20 09:13:53;;;;;;;24.50;16.75;;;15.90;38.30;;;;;;5057046;28;20110;-60
2021/04/20 09:16:24;;;;;;;23.48;16.25;;;16.00;37.80;;;;;;5021651;28;20060;-60
2021/04/20 09:18:52;;;;;;;26.60;18.23;;;16.00;37.20;;;;;;5043036;28;20072;-61
2021/04/20 09:21:47;;;;;;;24.10;16.98;;;16.00;36.70;;;;;;5043141;28;21497;-60
2021/04/20 09:24:17;;;;;;;26.20;17.30;;;16.10;36.40;;;;;;5046889;28;20410;-60
2021/04/20 09:27:15;;;;;;;22.80;16.63;;;16.20;36.50;;;;;;5030768;28;20090;-60
2021/04/20 09:30:06;;;;;;;20.63;14.10;;;16.30;36.60;;;;;;5038814;28;20049;-60
2021/04/20 09:32:38;;;;;;;22.20;15.00;;;16.30;36.30;;;;;;5046956;28;20501;-60
2021/04/20 09:35:07;;;;;;;22.63;14.52;;;16.40;36.70;;;;;;5046767;28;20448;-61
2021/04/20 09:37:36;;;;;;;22.23;15.15;;;16.50;36.60;;;;;;5031925;28;20553;-60
2021/04/20 09:40:03;;;;;;;21.20;15.52;;;16.60;35.40;;;;;;5036250;28;20044;-60
2021/04/20 09:42:30;;;;;;;25.63;15.80;;;16.50;35.30;;;;;;5058446;28;20110;-60
2021/04/20 09:45:19;;;;;;;23.30;15.85;;;16.60;35.40;;;;;;5051976;28;20072;-60
2021/04/20 09:48:11;;;;;;;19.83;15.55;;;16.60;35.40;;;;;;5051377;28;20037;-60
2021/04/20 09:51:04;;;;;;;19.25;15.57;;;16.70;37.10;;;;;;5037059;28;20032;-61
2021/04/20 09:53:48;;;;;;;19.75;15.50;;;16.70;36.20;;;;;;5026019;28;20067;-61
2021/04/20 09:56:34;;;;;;;19.50;15.27;;;16.90;35.90;;;;;;5041270;28;20079;-61
2021/04/20 09:59:05;;;;;;;21.80;14.40;;;16.90;34.80;;;;;;5048916;28;20044;-61
2021/04/20 10:01:47;;;;;;;25.67;14.43;;;16.90;33.70;;;;;;5046016;28;20048;-61
2021/04/20 10:04:17;;;;;;;23.08;15.60;;;17.00;33.30;;;;;;5061237;28;20131;-60
2021/04/20 10:07:20;;;;;;;20.55;14.80;;;17.00;33.60;;;;;;5041285;28;20118;-60
2021/04/20 10:09:52;;;;;;;18.88;14.07;;;17.10;33.70;;;;;;5010849;28;20046;-61
2021/04/20 10:12:37;;;;;;;18.35;13.85;;;17.20;34.80;;;;;;5047934;28;20079;-61
2021/04/20 10:15:16;;;;;;;18.60;12.30;;;17.30;33.50;;;;;;5049025;28;20602;-61
2021/04/20 10:17:42;;;;;;;17.08;12.00;;;17.40;33.50;;;;;;5057106;28;20056;-60
2021/04/20 10:20:16;;;;;;;19.25;12.77;;;17.30;33.20;;;;;;5054305;28;20043;-61
2021/04/20 10:23:04;;;;;;;16.80;12.57;;;17.30;33.10;;;;;;5060744;28;20443;-60
2021/04/20 10:25:44;;;;;;;20.88;12.07;;;17.30;36.40;;;;;;5035864;28;20042;-62
2021/04/20 10:28:28;;;;;;;17.50;12.20;;;17.50;33.50;;;;;;5052738;28;20045;-61
2021/04/20 10:31:01;;;;;;;17.60;11.00;;;17.50;31.80;;;;;;5006800;28;20520;-61
2021/04/20 10:33:29;;;;;;;15.10;10.80;;;17.50;32.00;;;;;;5041274;28;20032;-61
2021/04/20 10:35:59;;;;;;;14.88;11.25;;;17.60;32.50;;;;;;5040481;28;20594;-61
2021/04/20 10:38:31;;;;;;;17.20;11.85;;;17.60;34.50;;;;;;5054342;28;20116;-61
2021/04/20 10:40:57;;;;;;;17.48;10.95;;;17.40;35.60;;;;;;5038602;28;20106;-61
2021/04/20 10:43:28;;;;;;;12.15;9.30;;;17.70;33.70;;;;;;5022434;28;20048;-61
2021/04/20 10:45:58;;;;;;;14.75;10.23;;;17.70;35.40;;;;;;5048996;28;20069;-61
2021/04/20 10:48:26;;;;;;;15.77;10.75;;;17.90;34.50;;;;;;5056013;28;20131;-61
2021/04/20 10:50:54;;;;;;;14.38;9.88;;;17.90;33.40;;;;;;5039887;28;20119;-61
2021/04/20 10:53:23;;;;;;;12.20;10.05;;;17.90;33.50;;;;;;5042656;28;20048;-61
2021/04/20 10:56:01;;;;;;;14.23;11.55;;;18.00;30.90;;;;;;5041621;28;20080;-61
2021/04/20 10:58:28;;;;;;;16.60;11.10;;;18.00;32.00;;;;;;5050629;28;20044;-61
2021/04/20 11:00:54;;;;;;;13.85;10.00;;;18.10;33.90;;;;;;5061173;28;20036;-63
2021/04/20 11:03:28;;;;;;;14.45;10.18;;;18.30;31.20;;;;;;5056961;28;20119;-63
2021/04/20 11:05:55;;;;;;;16.50;11.10;;;18.60;31.30;;;;;;5061663;28;20497;-63
2021/04/20 11:08:38;;;;;;;16.08;10.45;;;18.60;30.70;;;;;;5056842;28;20496;-61
2021/04/20 11:11:04;;;;;;;14.15;11.05;;;18.60;29.30;;;;;;5057863;28;20059;-62
2021/04/20 11:13:35;;;;;;;16.50;11.13;;;18.70;29.90;;;;;;5034591;28;20414;-62
2021/04/20 11:16:06;;;;;;;15.95;11.13;;;18.90;29.80;;;;;;5049881;28;20033;-61
2021/04/20 11:18:35;;;;;;;15.60;10.85;;;18.90;31.70;;;;;;5048238;28;20163;-62
2021/04/20 11:21:07;;;;;;;18.17;10.40;;;18.90;32.50;;;;;;5063301;28;20397;-61
2021/04/20 11:23:37;;;;;;;15.40;11.43;;;19.10;30.10;;;;;;5057626;28;20120;-59
2021/04/20 11:26:11;;;;;;;20.10;14.25;;;19.10;29.80;;;;;;5060473;28;20044;-61
2021/04/20 11:28:46;;;;;;;19.42;12.50;;;19.20;29.20;;;;;;5045994;28;20049;-61
2021/04/20 11:31:30;;;;;;;;;;;19.20;29.60;;;;;;5062358;28;20048;-60
2021/04/20 11:34:15;;;;;;;20.10;13.70;;;19.60;27.20;;;;;;5032182;28;20027;-64
2021/04/20 11:36:40;;;;;;;;;;;20.00;27.20;;;;;;5053299;28;20037;-63
2021/04/20 11:39:09;;;;;;;29.13;17.45;;;22.80;25.30;;;;;;5060711;28;20535;-64
2021/04/20 11:41:55;;;;;;;18.13;12.93;;;26.50;22.60;;;;;;5053847;28;20043;-63
2021/04/20 11:44:22;;;;;;;17.90;11.85;;;26.60;22.00;;;;;;4985356;28;20034;-61
2021/04/20 11:46:50;;;;;;;14.75;12.05;;;27.80;21.30;;;;;;5045613;28;20033;-59
2021/04/20 11:49:20;;;;;;;17.52;13.68;;;27.20;20.80;;;;;;5046173;28;20056;-59
2021/04/20 11:51:47;;;;;;;21.23;14.38;;;27.40;20.50;;;;;;5044001;28;20427;-61
2021/04/20 11:54:28;;;;;;;20.80;14.13;;;27.70;20.00;;;;;;5044601;28;20052;-59
2021/04/20 11:57:00;;;;;;;19.52;14.27;;;29.60;18.60;;;;;;5046353;28;20053;-60
2021/04/20 11:59:26;;;;;;;15.55;13.60;;;30.60;18.50;;;;;;5052372;28;20078;-59
2021/04/20 12:01:53;;;;;;;16.48;13.63;;;29.10;18.60;;;;;;5057488;28;20105;-60
2021/04/20 12:04:29;;;;;;;15.88;12.02;;;27.90;18.70;;;;;;5054300;28;20033;-59
2021/04/20 12:06:56;;;;;;;19.70;14.07;;;27.10;21.50;;;;;;5057612;28;20119;-59
2021/04/20 12:09:25;;;;;;;15.75;14.02;;;27.00;20.60;;;;;;5040111;28;20147;-60
2021/04/20 12:11:53;;;;;;;19.05;12.98;;;27.60;19.20;;;;;;5046593;28;20047;-59
2021/04/20 12:14:21;;;;;;;18.25;12.68;;;28.90;19.90;;;;;;5041943;28;20095;-59
2021/04/20 12:16:53;;;;;;;15.30;11.15;;;29.30;19.80;;;;;;5040507;28;20052;-59
2021/04/20 12:19:21;;;;;;;13.50;11.43;;;28.70;19.60;;;;;;5051682;28;20521;-59
2021/04/20 12:21:51;;;;;;;14.75;11.95;;;27.90;19.80;;;;;;5048550;28;20041;-60
2021/04/20 12:24:20;;;;;;;13.95;11.43;;;27.20;20.50;;;;;;5043285;28;20045;-59
2021/04/20 12:26:51;;;;;;;13.40;11.02;;;26.70;20.20;;;;;;5035894;28;20448;-59
2021/04/20 12:29:20;;;;;;;14.32;10.55;;;26.70;19.90;;;;;;5053443;28;20063;-60
2021/04/20 12:31:46;;;;;;;9.77;8.77;;;26.80;19.40;;;;;;5034161;28;20080;-60
2021/04/20 12:34:12;;;;;;;11.50;9.75;;;27.00;20.70;;;;;;5059882;28;20508;-60
2021/04/20 12:36:50;;;;;;;11.50;9.82;;;27.50;19.90;;;;;;5045880;28;20064;-60
2021/04/20 12:39:38;;;;;;;11.23;10.02;;;27.80;18.90;;;;;;5047636;28;20517;-60
2021/04/20 12:42:08;;;;;;;11.68;9.50;;;26.60;19.70;;;;;;5040293;28;20189;-60
2021/04/20 12:44:44;;;;;;;16.98;9.70;;;26.30;20.00;;;;;;5048630;28;20371;-60
2021/04/20 12:47:12;;;;;;;11.27;9.90;;;26.30;19.40;;;;;;5053295;28;20491;-59
2021/04/20 12:49:44;;;;;;;22.30;20.25;;;25.30;21.00;;;;;;5053550;28;20044;-60
2021/04/20 12:52:13;;;;;;;10.63;8.85;;;26.10;20.90;;;;;;5058930;28;20029;-60
2021/04/20 12:54:43;;;;;;;9.98;8.80;;;26.20;19.60;;;;;;5054372;28;20175;-60
2021/04/20 12:57:15;;;;;;;10.45;9.45;;;26.30;18.70;;;;;;5037484;28;20053;-60